createdAt,value
2018-07-14T00:00:30.842Z,53.70
2018-07-14T00:01:02.578Z,54.40
2018-07-14T00:01:34.310Z,53.70
2018-07-14T00:02:06.024Z,53.60
2018-07-14T00:02:37.746Z,53.60
2018-07-14T00:03:09.465Z,53.60
2018-07-14T00:03:41.211Z,53.70
2018-07-14T00:04:12.927Z,53.60
2018-07-14T00:04:44.651Z,53.60
2018-07-14T00:05:16.382Z,53.60
2018-07-14T00:05:48.111Z,53.70
2018-07-14T00:06:19.834Z,53.60
2018-07-14T00:06:51.558Z,53.70
2018-07-14T00:07:23.279Z,53.60
2018-07-14T00:07:55.038Z,53.70
2018-07-14T00:08:27.030Z,53.80
2018-07-14T00:08:58.765Z,53.70
2018-07-14T00:09:30.482Z,53.80
2018-07-14T00:10:02.313Z,53.70
2018-07-14T00:10:34.222Z,53.70
2018-07-14T00:11:05.930Z,53.70
2018-07-14T00:11:37.661Z,53.70
2018-07-14T00:12:09.426Z,53.70
2018-07-14T00:12:41.128Z,53.80
2018-07-14T00:13:12.841Z,53.80
2018-07-14T00:13:44.590Z,53.80
2018-07-14T00:14:16.332Z,53.80
2018-07-14T00:14:48.061Z,53.80
2018-07-14T00:15:51.804Z,53.80
2018-07-14T00:16:23.610Z,53.80
2018-07-14T00:16:55.351Z,53.80
2018-07-14T00:17:27.077Z,53.80
2018-07-14T00:17:58.814Z,53.80
2018-07-14T00:18:30.557Z,53.70
2018-07-14T00:19:02.288Z,53.70
2018-07-14T00:19:34.044Z,53.70
2018-07-14T00:20:05.788Z,53.70
2018-07-14T00:20:37.508Z,53.70
2018-07-14T00:21:09.224Z,53.80
2018-07-14T00:21:40.951Z,53.70
2018-07-14T00:22:12.688Z,53.70
2018-07-14T00:22:44.410Z,53.80
2018-07-14T00:23:16.133Z,53.70
2018-07-14T00:23:47.850Z,53.80
2018-07-14T00:24:19.585Z,53.80
2018-07-14T00:25:23.321Z,53.90
2018-07-14T00:25:55.051Z,53.90
2018-07-14T00:26:26.764Z,54.00
2018-07-14T00:26:58.483Z,54.00
2018-07-14T00:27:30.220Z,54.00
2018-07-14T00:28:01.942Z,53.90
2018-07-14T00:28:33.671Z,53.90
2018-07-14T00:29:05.388Z,53.90
2018-07-14T00:29:37.137Z,54.00
2018-07-14T00:30:08.913Z,53.90
2018-07-14T00:30:40.818Z,53.90
2018-07-14T00:31:12.545Z,53.90
2018-07-14T00:31:44.257Z,53.90
2018-07-14T00:32:15.992Z,53.90
2018-07-14T00:32:47.713Z,53.90
2018-07-14T00:33:19.445Z,53.90
2018-07-14T00:33:51.177Z,53.90
2018-07-14T00:34:22.917Z,54.00
2018-07-14T00:34:54.626Z,54.30
2018-07-14T00:35:26.357Z,54.10
2018-07-14T00:35:58.101Z,54.10
2018-07-14T00:36:29.850Z,54.20
2018-07-14T00:37:01.579Z,54.00
2018-07-14T00:37:33.301Z,54.60
2018-07-14T00:38:05.077Z,54.20
2018-07-14T00:38:36.817Z,54.30
2018-07-14T00:39:08.542Z,54.20
2018-07-14T00:39:40.274Z,54.30
2018-07-14T00:40:11.994Z,54.50
2018-07-14T00:40:43.738Z,54.40
2018-07-14T00:41:15.459Z,54.50
2018-07-14T00:41:47.182Z,54.50
2018-07-14T00:42:18.942Z,54.40
2018-07-14T00:42:50.665Z,54.60
2018-07-14T00:43:22.396Z,54.40
2018-07-14T00:43:54.120Z,54.40
2018-07-14T00:44:25.849Z,54.30
2018-07-14T00:44:57.878Z,54.40
2018-07-14T00:45:29.597Z,54.50
2018-07-14T00:46:01.332Z,54.40
2018-07-14T00:46:33.061Z,54.50
2018-07-14T00:47:04.797Z,54.50
2018-07-14T00:47:36.526Z,54.50
2018-07-14T00:48:08.266Z,54.20
2018-07-14T00:48:39.977Z,54.10
2018-07-14T00:49:11.722Z,54.10
2018-07-14T00:49:43.497Z,54.20
2018-07-14T00:50:15.225Z,54.20
2018-07-14T00:50:46.952Z,54.10
2018-07-14T00:51:18.685Z,54.20
2018-07-14T00:51:50.410Z,54.20
2018-07-14T00:52:22.121Z,54.00
2018-07-14T00:52:53.864Z,54.00
2018-07-14T00:53:25.579Z,54.20
2018-07-14T00:53:57.305Z,54.00
2018-07-14T00:54:29.036Z,54.10
2018-07-14T00:55:00.777Z,54.20
2018-07-14T00:55:32.493Z,54.30
2018-07-14T00:56:04.230Z,54.20
2018-07-14T00:56:35.959Z,54.20
2018-07-14T00:57:07.687Z,54.10
2018-07-14T00:57:39.426Z,54.20
2018-07-14T00:58:11.167Z,54.20
2018-07-14T00:58:42.886Z,54.20
2018-07-14T00:59:14.617Z,54.20
2018-07-14T00:59:46.333Z,54.20
2018-07-14T01:00:18.066Z,54.10
2018-07-14T01:00:49.804Z,54.20
2018-07-14T01:01:21.532Z,54.00
2018-07-14T01:01:53.254Z,54.20
2018-07-14T01:02:24.985Z,54.10
2018-07-14T01:02:56.702Z,54.20
2018-07-14T01:03:28.441Z,54.30
2018-07-14T01:04:00.156Z,54.30
2018-07-14T01:04:31.874Z,54.30
2018-07-14T01:05:03.681Z,54.30
2018-07-14T01:05:35.402Z,54.20
2018-07-14T01:06:07.129Z,54.20
2018-07-14T01:06:38.873Z,54.30
2018-07-14T01:07:10.626Z,54.20
2018-07-14T01:07:42.361Z,54.20
2018-07-14T01:08:14.095Z,54.30
2018-07-14T01:08:45.806Z,54.40
2018-07-14T01:09:17.532Z,54.40
2018-07-14T01:09:49.283Z,54.30
2018-07-14T01:10:21.011Z,54.30
2018-07-14T01:10:52.733Z,54.30
2018-07-14T01:11:24.458Z,54.40
2018-07-14T01:11:56.181Z,54.40
2018-07-14T01:12:27.911Z,54.40
2018-07-14T01:12:59.632Z,54.40
2018-07-14T01:13:31.353Z,54.40
2018-07-14T01:14:03.081Z,54.30
2018-07-14T01:14:34.816Z,54.40
2018-07-14T01:15:06.537Z,54.30
2018-07-14T01:15:38.277Z,54.30
2018-07-14T01:16:09.997Z,54.40
2018-07-14T01:16:41.723Z,54.40
2018-07-14T01:17:13.446Z,54.30
2018-07-14T01:17:45.214Z,54.20
2018-07-14T01:18:17.103Z,54.30
2018-07-14T01:18:48.819Z,54.20
2018-07-14T01:19:20.549Z,54.20
2018-07-14T01:19:52.294Z,54.10
2018-07-14T01:20:24.017Z,54.20
2018-07-14T01:20:55.732Z,54.20
2018-07-14T01:21:27.468Z,54.20
2018-07-14T01:21:59.189Z,54.20
2018-07-14T01:22:30.914Z,54.10
2018-07-14T01:23:02.633Z,54.10
2018-07-14T01:23:34.365Z,54.10
2018-07-14T01:24:06.098Z,54.20
2018-07-14T01:24:37.816Z,54.20
2018-07-14T01:25:09.534Z,54.20
2018-07-14T01:25:41.264Z,54.20
2018-07-14T01:26:12.977Z,54.10
2018-07-14T01:26:44.742Z,54.20
2018-07-14T01:27:16.479Z,54.20
2018-07-14T01:27:48.203Z,54.20
2018-07-14T01:28:19.950Z,54.20
2018-07-14T01:28:51.680Z,54.10
2018-07-14T01:29:23.417Z,54.20
2018-07-14T01:29:55.138Z,54.20
2018-07-14T01:30:26.860Z,54.10
2018-07-14T01:30:58.610Z,54.10
2018-07-14T01:31:30.346Z,54.10
2018-07-14T01:32:02.615Z,54.10
2018-07-14T01:32:34.322Z,54.10
2018-07-14T01:33:06.057Z,54.10
2018-07-14T01:33:37.778Z,54.10
2018-07-14T01:34:41.537Z,54.10
2018-07-14T01:35:13.261Z,54.20
2018-07-14T01:35:44.994Z,54.10
2018-07-14T01:36:16.933Z,54.00
2018-07-14T01:36:48.669Z,54.20
2018-07-14T01:37:20.395Z,54.10
2018-07-14T01:37:52.125Z,54.00
2018-07-14T01:38:55.850Z,54.10
2018-07-14T01:39:27.589Z,54.10
2018-07-14T01:39:59.326Z,54.20
2018-07-14T01:40:31.110Z,53.70
2018-07-14T01:41:03.014Z,54.10
2018-07-14T01:41:34.736Z,54.10
2018-07-14T01:42:06.457Z,54.00
2018-07-14T01:42:38.192Z,54.00
2018-07-14T01:43:09.923Z,54.00
2018-07-14T01:43:41.850Z,54.00
2018-07-14T01:44:13.598Z,54.00
2018-07-14T01:44:45.321Z,54.00
2018-07-14T01:45:17.058Z,54.00
2018-07-14T01:45:48.807Z,54.00
2018-07-14T01:46:20.525Z,54.00
2018-07-14T01:46:52.258Z,53.90
2018-07-14T01:47:24.003Z,54.00
2018-07-14T01:47:55.909Z,54.00
2018-07-14T01:48:27.635Z,54.00
2018-07-14T01:48:59.350Z,54.00
2018-07-14T01:49:31.081Z,54.00
2018-07-14T01:50:02.801Z,54.60
2018-07-14T01:50:34.549Z,54.00
2018-07-14T01:51:06.280Z,53.90
2018-07-14T01:51:37.995Z,54.00
2018-07-14T01:52:09.713Z,54.00
2018-07-14T01:52:41.464Z,53.90
2018-07-14T01:53:13.191Z,53.90
2018-07-14T01:53:45.114Z,53.80
2018-07-14T01:54:16.836Z,53.90
2018-07-14T01:54:48.564Z,54.00
2018-07-14T01:55:20.286Z,53.90
2018-07-14T01:55:52.018Z,53.90
2018-07-14T01:56:23.738Z,53.90
2018-07-14T01:56:55.470Z,54.00
2018-07-14T01:57:27.261Z,53.90
2018-07-14T01:57:58.986Z,53.90
2018-07-14T01:58:30.742Z,53.90
2018-07-14T01:59:02.656Z,53.80
2018-07-14T01:59:34.388Z,53.80
2018-07-14T02:00:06.117Z,53.80
2018-07-14T02:00:38.277Z,53.70
2018-07-14T02:01:10.054Z,53.70
2018-07-14T02:01:41.770Z,53.70
2018-07-14T02:02:13.509Z,53.70
2018-07-14T02:02:45.240Z,54.30
2018-07-14T02:03:16.961Z,53.60
2018-07-14T02:03:48.686Z,53.60
2018-07-14T02:04:20.432Z,53.60
2018-07-14T02:04:52.149Z,53.70
2018-07-14T02:05:23.875Z,53.70
2018-07-14T02:05:55.607Z,53.70
2018-07-14T02:06:27.329Z,53.70
2018-07-14T02:06:59.051Z,53.70
2018-07-14T02:07:30.765Z,53.70
2018-07-14T02:08:02.491Z,53.70
2018-07-14T02:08:34.213Z,53.70
2018-07-14T02:09:05.925Z,53.70
2018-07-14T02:09:37.647Z,53.70
2018-07-14T02:10:09.401Z,53.60
2018-07-14T02:10:41.135Z,53.60
2018-07-14T02:11:12.902Z,53.60
2018-07-14T02:11:44.785Z,53.60
2018-07-14T02:12:16.496Z,53.60
2018-07-14T02:12:48.221Z,53.60
2018-07-14T02:13:19.945Z,53.50
2018-07-14T02:13:51.697Z,53.60
2018-07-14T02:14:55.440Z,53.60
2018-07-14T02:15:27.185Z,53.50
2018-07-14T02:15:58.912Z,53.50
2018-07-14T02:16:30.659Z,53.40
2018-07-14T02:17:02.394Z,53.30
2018-07-14T02:17:34.113Z,53.30
2018-07-14T02:18:05.838Z,53.30
2018-07-14T02:18:37.588Z,53.30
2018-07-14T02:19:09.305Z,53.80
2018-07-14T02:19:41.082Z,53.70
2018-07-14T02:20:12.813Z,53.40
2018-07-14T02:20:44.529Z,54.00
2018-07-14T02:21:16.261Z,53.30
2018-07-14T02:21:48.011Z,53.40
2018-07-14T02:22:19.750Z,53.40
2018-07-14T02:22:51.481Z,53.30
2018-07-14T02:23:23.199Z,53.30
2018-07-14T02:23:54.930Z,53.30
2018-07-14T02:24:58.678Z,53.90
2018-07-14T02:25:30.470Z,53.20
2018-07-14T02:26:02.221Z,53.20
2018-07-14T02:26:33.946Z,53.20
2018-07-14T02:27:05.667Z,53.20
2018-07-14T02:27:37.385Z,53.30
2018-07-14T02:28:09.100Z,53.20
2018-07-14T02:28:40.829Z,53.20
2018-07-14T02:29:12.549Z,53.10
2018-07-14T02:29:44.294Z,53.10
2018-07-14T02:30:16.094Z,53.20
2018-07-14T02:30:47.819Z,53.20
2018-07-14T02:31:19.535Z,53.20
2018-07-14T02:31:51.262Z,53.20
2018-07-14T02:32:22.991Z,53.20
2018-07-14T02:32:54.733Z,53.20
2018-07-14T02:33:26.477Z,53.20
2018-07-14T02:33:58.202Z,53.20
2018-07-14T02:34:29.942Z,53.20
2018-07-14T02:35:01.710Z,53.10
2018-07-14T02:35:33.631Z,53.20
2018-07-14T02:36:05.580Z,53.20
2018-07-14T02:36:37.528Z,53.30
2018-07-14T02:37:09.299Z,53.30
2018-07-14T02:37:41.050Z,53.30
2018-07-14T02:38:44.825Z,53.20
2018-07-14T02:39:16.750Z,53.30
2018-07-14T02:39:48.468Z,53.40
2018-07-14T02:40:20.220Z,53.30
2018-07-14T02:40:51.937Z,53.30
2018-07-14T02:41:23.661Z,53.20
2018-07-14T02:41:55.392Z,53.30
2018-07-14T02:42:27.403Z,53.30
2018-07-14T02:42:59.113Z,53.30
2018-07-14T02:43:30.839Z,53.30
2018-07-14T02:44:02.561Z,53.30
2018-07-14T02:44:34.290Z,53.50
2018-07-14T02:45:06.009Z,53.50
2018-07-14T02:45:37.744Z,53.40
2018-07-14T02:46:09.480Z,53.40
2018-07-14T02:46:41.205Z,53.30
2018-07-14T02:47:12.932Z,53.50
2018-07-14T02:47:44.854Z,53.40
2018-07-14T02:48:16.578Z,53.50
2018-07-14T02:48:48.306Z,53.50
2018-07-14T02:49:20.019Z,53.50
2018-07-14T02:49:51.741Z,53.40
2018-07-14T02:50:23.466Z,53.50
2018-07-14T02:50:55.198Z,53.40
2018-07-14T02:51:26.926Z,53.40
2018-07-14T02:51:58.662Z,53.40
2018-07-14T02:52:30.384Z,53.40
2018-07-14T02:53:02.114Z,53.30
2018-07-14T02:53:33.839Z,53.30
2018-07-14T02:54:05.561Z,53.30
2018-07-14T02:54:37.292Z,53.20
2018-07-14T02:55:09.025Z,53.30
2018-07-14T02:55:40.750Z,53.30
2018-07-14T02:56:12.695Z,53.20
2018-07-14T02:56:44.424Z,53.30
2018-07-14T02:57:16.350Z,53.20
2018-07-14T02:57:48.069Z,53.20
2018-07-14T02:58:19.803Z,53.20
2018-07-14T02:58:51.520Z,53.20
2018-07-14T02:59:23.249Z,53.20
2018-07-14T02:59:55.099Z,53.40
2018-07-14T03:00:26.924Z,53.20
2018-07-14T03:00:58.666Z,53.20
2018-07-14T03:01:30.378Z,53.20
2018-07-14T03:02:02.119Z,53.20
2018-07-14T03:02:33.845Z,53.20
2018-07-14T03:03:05.572Z,53.20
2018-07-14T03:03:37.304Z,53.20
2018-07-14T03:04:09.035Z,53.20
2018-07-14T03:04:40.750Z,53.20
2018-07-14T03:05:12.474Z,53.20
2018-07-14T03:05:44.206Z,53.20
2018-07-14T03:06:15.956Z,53.80
2018-07-14T03:06:47.686Z,53.20
2018-07-14T03:07:19.424Z,53.20
2018-07-14T03:07:51.155Z,53.20
2018-07-14T03:08:22.872Z,53.10
2018-07-14T03:08:54.673Z,53.20
2018-07-14T03:09:26.406Z,53.20
2018-07-14T03:09:58.134Z,53.20
2018-07-14T03:10:29.863Z,53.20
2018-07-14T03:11:01.598Z,53.20
2018-07-14T03:11:33.317Z,53.20
2018-07-14T03:12:05.090Z,53.20
2018-07-14T03:12:37.020Z,53.20
2018-07-14T03:13:08.947Z,53.20
2018-07-14T03:13:40.675Z,53.20
2018-07-14T03:14:12.393Z,53.20
2018-07-14T03:14:44.120Z,53.20
2018-07-14T03:15:15.838Z,53.20
2018-07-14T03:15:47.563Z,53.20
2018-07-14T03:16:19.541Z,53.20
2018-07-14T03:16:51.253Z,53.20
2018-07-14T03:17:22.969Z,53.20
2018-07-14T03:17:54.777Z,53.20
2018-07-14T03:18:26.509Z,53.20
2018-07-14T03:18:58.231Z,53.20
2018-07-14T03:19:30.103Z,53.30
2018-07-14T03:20:01.883Z,53.30
2018-07-14T03:20:33.621Z,53.30
2018-07-14T03:21:05.346Z,53.30
2018-07-14T03:21:37.147Z,53.30
2018-07-14T03:22:08.891Z,53.30
2018-07-14T03:22:40.610Z,53.30
2018-07-14T03:23:12.341Z,53.30
2018-07-14T03:23:44.073Z,53.30
2018-07-14T03:24:15.798Z,53.30
2018-07-14T03:24:47.751Z,53.30
2018-07-14T03:25:19.489Z,53.30
2018-07-14T03:25:51.195Z,53.30
2018-07-14T03:26:22.917Z,53.30
2018-07-14T03:26:54.646Z,53.90
2018-07-14T03:27:26.559Z,53.30
2018-07-14T03:27:58.485Z,53.30
2018-07-14T03:28:30.208Z,54.00
2018-07-14T03:29:01.991Z,53.20
2018-07-14T03:29:33.714Z,53.30
2018-07-14T03:30:05.459Z,53.30
2018-07-14T03:30:37.183Z,53.30
2018-07-14T03:31:08.906Z,53.30
2018-07-14T03:31:40.662Z,53.30
2018-07-14T03:32:12.381Z,53.30
2018-07-14T03:32:44.094Z,53.30
2018-07-14T03:33:15.830Z,53.30
2018-07-14T03:33:47.742Z,53.40
2018-07-14T03:34:19.505Z,53.50
2018-07-14T03:34:51.280Z,53.50
2018-07-14T03:35:22.984Z,53.60
2018-07-14T03:35:54.712Z,53.60
2018-07-14T03:36:26.445Z,53.70
2018-07-14T03:36:58.171Z,53.70
2018-07-14T03:37:29.897Z,53.70
2018-07-14T03:38:33.642Z,53.80
2018-07-14T03:39:05.367Z,53.80
2018-07-14T03:39:37.104Z,54.40
2018-07-14T03:40:08.834Z,53.80
2018-07-14T03:40:40.550Z,53.80
2018-07-14T03:41:12.267Z,53.80
2018-07-14T03:41:44.019Z,53.80
2018-07-14T03:42:15.746Z,53.70
2018-07-14T03:42:47.481Z,53.70
2018-07-14T03:43:19.201Z,53.70
2018-07-14T03:43:50.916Z,53.70
2018-07-14T03:44:22.634Z,53.60
2018-07-14T03:44:54.353Z,53.60
2018-07-14T03:45:26.085Z,53.60
2018-07-14T03:45:57.797Z,53.60
2018-07-14T03:46:29.534Z,53.60
2018-07-14T03:47:01.275Z,53.70
2018-07-14T03:47:32.995Z,53.60
2018-07-14T03:48:04.738Z,53.70
2018-07-14T03:48:36.465Z,53.70
2018-07-14T03:49:08.206Z,53.70
2018-07-14T03:49:39.918Z,53.70
2018-07-14T03:50:11.645Z,53.70
2018-07-14T03:50:43.594Z,53.70
2018-07-14T03:51:15.312Z,53.70
2018-07-14T03:51:47.057Z,53.70
2018-07-14T03:52:18.797Z,53.70
2018-07-14T03:52:50.792Z,53.70
2018-07-14T03:53:22.521Z,53.70
2018-07-14T03:53:54.243Z,53.60
2018-07-14T03:54:25.970Z,53.70
2018-07-14T03:54:57.688Z,53.70
2018-07-14T03:55:29.435Z,53.70
2018-07-14T03:56:01.149Z,53.70
2018-07-14T03:57:04.917Z,53.80
2018-07-14T03:57:36.682Z,53.80
2018-07-14T03:58:08.382Z,53.80
2018-07-14T03:58:40.101Z,53.70
2018-07-14T03:59:11.822Z,53.80
2018-07-14T03:59:43.552Z,53.70
2018-07-14T04:00:15.271Z,54.50
2018-07-14T04:00:47.010Z,53.80
2018-07-14T04:01:18.719Z,53.90
2018-07-14T04:01:50.449Z,53.90
2018-07-14T04:02:54.207Z,53.90
2018-07-14T04:03:25.933Z,53.90
2018-07-14T04:03:57.855Z,53.90
2018-07-14T04:04:29.585Z,54.00
2018-07-14T04:05:01.319Z,53.80
2018-07-14T04:05:33.047Z,53.90
2018-07-14T04:06:04.801Z,53.90
2018-07-14T04:06:36.653Z,53.90
2018-07-14T04:07:08.486Z,54.50
2018-07-14T04:07:40.226Z,53.80
2018-07-14T04:08:11.960Z,53.90
2018-07-14T04:08:43.692Z,53.90
2018-07-14T04:09:15.418Z,53.90
2018-07-14T04:09:47.157Z,53.80
2018-07-14T04:10:18.873Z,53.90
2018-07-14T04:10:50.801Z,53.90
2018-07-14T04:11:22.522Z,53.90
2018-07-14T04:11:54.246Z,53.90
2018-07-14T04:12:25.981Z,53.80
2018-07-14T04:12:57.712Z,53.80
2018-07-14T04:13:29.437Z,53.80
2018-07-14T04:14:01.159Z,53.90
2018-07-14T04:14:32.892Z,54.20
2018-07-14T04:15:04.603Z,53.80
2018-07-14T04:15:36.361Z,53.90
2018-07-14T04:16:08.164Z,53.90
2018-07-14T04:16:39.892Z,53.90
2018-07-14T04:17:11.606Z,54.00
2018-07-14T04:17:43.338Z,53.90
2018-07-14T04:18:15.068Z,53.90
2018-07-14T04:18:46.812Z,53.90
2018-07-14T04:19:18.583Z,53.90
2018-07-14T04:19:50.457Z,54.00
2018-07-14T04:20:22.169Z,54.00
2018-07-14T04:20:53.995Z,54.00
2018-07-14T04:21:25.673Z,54.00
2018-07-14T04:21:57.402Z,54.10
2018-07-14T04:22:29.130Z,54.00
2018-07-14T04:23:00.870Z,54.00
2018-07-14T04:23:32.582Z,54.00
2018-07-14T04:24:04.301Z,53.90
2018-07-14T04:24:36.025Z,54.00
2018-07-14T04:25:07.734Z,54.70
2018-07-14T04:25:39.461Z,54.10
2018-07-14T04:26:11.187Z,54.00
2018-07-14T04:27:14.970Z,54.40
2018-07-14T04:27:46.697Z,54.10
2018-07-14T04:28:18.615Z,54.10
2018-07-14T04:28:50.347Z,54.10
2018-07-14T04:29:22.070Z,54.10
2018-07-14T04:29:53.793Z,54.10
2018-07-14T04:30:25.518Z,53.50
2018-07-14T04:30:57.234Z,54.10
2018-07-14T04:31:28.952Z,54.10
2018-07-14T04:32:00.734Z,54.10
2018-07-14T04:32:32.637Z,54.10
2018-07-14T04:33:04.358Z,54.20
2018-07-14T04:33:36.093Z,54.10
2018-07-14T04:34:07.871Z,54.10
2018-07-14T04:34:39.590Z,54.10
2018-07-14T04:35:11.318Z,54.10
2018-07-14T04:35:43.047Z,54.10
2018-07-14T04:36:14.774Z,54.10
2018-07-14T04:36:46.505Z,54.10
2018-07-14T04:37:18.230Z,54.20
2018-07-14T04:37:49.969Z,54.10
2018-07-14T04:38:21.688Z,54.20
2018-07-14T04:38:53.416Z,54.20
2018-07-14T04:39:25.147Z,54.20
2018-07-14T04:39:56.874Z,54.30
2018-07-14T04:40:28.602Z,54.30
2018-07-14T04:41:00.329Z,54.20
2018-07-14T04:41:32.046Z,54.30
2018-07-14T04:42:03.779Z,54.30
2018-07-14T04:42:35.538Z,54.30
2018-07-14T04:43:07.364Z,54.30
2018-07-14T04:43:39.063Z,54.20
2018-07-14T04:44:10.799Z,54.40
2018-07-14T04:44:42.510Z,54.30
2018-07-14T04:45:14.239Z,54.40
2018-07-14T04:45:45.965Z,54.40
2018-07-14T04:46:17.686Z,54.40
2018-07-14T04:46:49.415Z,54.40
2018-07-14T04:47:21.150Z,54.50
2018-07-14T04:47:52.870Z,54.40
2018-07-14T04:48:24.590Z,54.40
2018-07-14T04:48:56.322Z,54.50
2018-07-14T04:49:28.055Z,54.40
2018-07-14T04:49:59.985Z,54.60
2018-07-14T04:50:31.704Z,54.80
2018-07-14T04:51:03.433Z,54.80
2018-07-14T04:51:35.161Z,54.70
2018-07-14T04:52:06.880Z,54.70
2018-07-14T04:52:38.629Z,54.90
2018-07-14T04:53:10.398Z,54.90
2018-07-14T04:53:42.301Z,54.90
2018-07-14T04:54:14.018Z,54.90
2018-07-14T04:54:45.748Z,54.90
2018-07-14T04:55:17.474Z,54.90
2018-07-14T04:55:49.202Z,54.70
2018-07-14T04:56:20.921Z,54.90
2018-07-14T04:56:52.721Z,54.90
2018-07-14T04:57:24.417Z,54.80
2018-07-14T04:57:56.131Z,54.80
2018-07-14T04:58:27.873Z,54.70
2018-07-14T04:58:59.617Z,54.70
2018-07-14T04:59:31.337Z,54.60
2018-07-14T05:00:03.070Z,54.70
2018-07-14T05:00:34.803Z,54.60
2018-07-14T05:01:06.538Z,54.70
2018-07-14T05:01:38.270Z,54.60
2018-07-14T05:02:10.023Z,54.70
2018-07-14T05:02:41.763Z,55.20
2018-07-14T05:03:13.492Z,54.70
2018-07-14T05:03:45.237Z,54.70
2018-07-14T05:04:16.965Z,54.70
2018-07-14T05:04:48.729Z,54.60
2018-07-14T05:05:20.434Z,54.60
2018-07-14T05:05:52.158Z,54.60
2018-07-14T05:06:23.935Z,54.70
2018-07-14T05:06:55.820Z,54.60
2018-07-14T05:07:27.546Z,54.60
2018-07-14T05:07:59.288Z,54.50
2018-07-14T05:08:30.993Z,54.60
2018-07-14T05:09:02.721Z,54.50
2018-07-14T05:09:34.451Z,54.50
2018-07-14T05:10:06.190Z,54.50
2018-07-14T05:10:37.920Z,54.60
2018-07-14T05:11:09.647Z,54.60
2018-07-14T05:11:41.395Z,54.60
2018-07-14T05:12:13.117Z,54.50
2018-07-14T05:12:44.889Z,54.60
2018-07-14T05:13:16.614Z,54.70
2018-07-14T05:13:48.345Z,54.70
2018-07-14T05:14:20.078Z,54.70
2018-07-14T05:14:51.821Z,54.50
2018-07-14T05:15:23.533Z,54.60
2018-07-14T05:15:55.254Z,54.70
2018-07-14T05:16:26.977Z,54.80
2018-07-14T05:16:58.705Z,54.80
2018-07-14T05:17:30.418Z,54.70
2018-07-14T05:18:02.138Z,54.60
2018-07-14T05:18:33.854Z,54.50
2018-07-14T05:19:05.583Z,55.30
2018-07-14T05:19:37.328Z,54.50
2018-07-14T05:20:09.050Z,54.50
2018-07-14T05:20:40.804Z,54.50
2018-07-14T05:21:12.492Z,54.40
2018-07-14T05:21:44.216Z,54.40
2018-07-14T05:22:15.932Z,54.20
2018-07-14T05:22:47.701Z,54.10
2018-07-14T05:23:19.809Z,54.10
2018-07-14T05:23:51.533Z,54.00
2018-07-14T05:24:23.242Z,53.90
2018-07-14T05:24:54.973Z,53.90
2018-07-14T05:25:26.725Z,53.90
2018-07-14T05:25:58.474Z,54.50
2018-07-14T05:26:30.218Z,53.80
2018-07-14T05:27:01.946Z,53.80
2018-07-14T05:27:33.674Z,53.80
2018-07-14T05:28:05.411Z,53.90
2018-07-14T05:29:09.348Z,53.80
2018-07-14T05:29:41.083Z,53.80
2018-07-14T05:30:12.824Z,53.80
2018-07-14T05:30:44.541Z,53.70
2018-07-14T05:31:16.273Z,53.70
2018-07-14T05:31:48.008Z,53.70
2018-07-14T05:32:19.732Z,53.60
2018-07-14T05:32:51.461Z,53.60
2018-07-14T05:33:23.188Z,53.40
2018-07-14T05:33:54.945Z,53.50
2018-07-14T05:34:26.680Z,53.50
2018-07-14T05:34:58.398Z,53.50
2018-07-14T05:35:30.178Z,53.50
2018-07-14T05:36:01.918Z,53.40
2018-07-14T05:36:33.649Z,53.40
2018-07-14T05:37:05.444Z,53.30
2018-07-14T05:38:09.225Z,53.30
2018-07-14T05:38:40.988Z,53.30
2018-07-14T05:39:12.939Z,53.30
2018-07-14T05:39:44.666Z,53.40
2018-07-14T05:40:16.399Z,53.30
2018-07-14T05:40:48.317Z,53.30
2018-07-14T05:41:20.052Z,53.20
2018-07-14T05:41:51.762Z,53.20
2018-07-14T05:42:23.507Z,53.30
2018-07-14T05:42:55.245Z,53.20
2018-07-14T05:43:26.977Z,53.20
2018-07-14T05:43:58.750Z,53.20
2018-07-14T05:44:30.630Z,53.30
2018-07-14T05:45:02.375Z,53.30
2018-07-14T05:45:34.096Z,53.30
2018-07-14T05:46:37.829Z,53.30
2018-07-14T05:47:09.550Z,53.30
2018-07-14T05:47:41.283Z,53.30
2018-07-14T05:48:13.018Z,53.30
2018-07-14T05:48:45.012Z,53.30
2018-07-14T05:49:16.739Z,53.40
2018-07-14T05:49:48.462Z,53.40
2018-07-14T05:50:20.195Z,53.40
2018-07-14T05:51:24.151Z,53.50
2018-07-14T05:51:55.915Z,53.50
2018-07-14T05:52:27.810Z,53.50
2018-07-14T05:52:59.543Z,53.60
2018-07-14T05:53:31.269Z,53.50
2018-07-14T05:54:02.994Z,53.50
2018-07-14T05:54:34.712Z,53.60
2018-07-14T05:55:06.445Z,53.60
2018-07-14T05:55:38.186Z,53.50
2018-07-14T05:56:09.909Z,53.60
2018-07-14T05:56:41.661Z,53.60
2018-07-14T05:57:13.374Z,53.60
2018-07-14T05:57:45.137Z,53.60
2018-07-14T05:58:16.921Z,53.60
2018-07-14T05:58:48.618Z,53.60
2018-07-14T05:59:20.349Z,54.20
2018-07-14T05:59:52.414Z,53.60
2018-07-14T06:00:24.393Z,53.60
2018-07-14T06:00:56.113Z,54.00
2018-07-14T06:01:27.842Z,53.60
2018-07-14T06:01:59.579Z,53.60
2018-07-14T06:02:31.316Z,53.60
2018-07-14T06:03:35.029Z,53.60
2018-07-14T06:04:06.750Z,53.60
2018-07-14T06:04:38.472Z,53.60
2018-07-14T06:05:10.220Z,53.60
2018-07-14T06:05:41.946Z,53.50
2018-07-14T06:06:13.668Z,53.50
2018-07-14T06:06:45.397Z,53.50
2018-07-14T06:07:17.126Z,53.60
2018-07-14T06:07:48.968Z,53.60
2018-07-14T06:08:20.812Z,53.60
2018-07-14T06:08:52.537Z,53.60
2018-07-14T06:09:24.276Z,53.60
2018-07-14T06:09:56.028Z,53.60
2018-07-14T06:10:27.795Z,53.70
2018-07-14T06:10:59.634Z,53.60
2018-07-14T06:11:31.371Z,53.60
2018-07-14T06:12:04.389Z,53.70
2018-07-14T06:12:36.831Z,53.60
2018-07-14T06:13:08.561Z,53.60
2018-07-14T06:13:40.282Z,53.60
2018-07-14T06:14:12.095Z,53.60
2018-07-14T06:14:43.993Z,53.50
2018-07-14T06:15:15.713Z,53.50
2018-07-14T06:15:47.445Z,53.60
2018-07-14T06:16:19.165Z,53.60
2018-07-14T06:16:50.896Z,53.70
2018-07-14T06:17:22.705Z,53.60
2018-07-14T06:17:54.542Z,53.60
2018-07-14T06:18:26.282Z,53.60
2018-07-14T06:18:58.009Z,53.60
2018-07-14T06:19:29.787Z,53.50
2018-07-14T06:20:01.703Z,53.50
2018-07-14T06:20:33.438Z,53.50
2018-07-14T06:21:05.364Z,53.50
2018-07-14T06:21:37.105Z,53.50
2018-07-14T06:22:08.825Z,53.50
2018-07-14T06:22:40.546Z,53.60
2018-07-14T06:23:12.269Z,53.60
2018-07-14T06:23:44.030Z,53.60
2018-07-14T06:24:15.752Z,53.60
2018-07-14T06:24:47.481Z,53.70
2018-07-14T06:25:19.234Z,53.70
2018-07-14T06:25:50.961Z,53.70
2018-07-14T06:26:22.688Z,53.80
2018-07-14T06:26:54.442Z,53.70
2018-07-14T06:27:26.294Z,53.80
2018-07-14T06:27:58.003Z,53.80
2018-07-14T06:28:29.714Z,53.80
2018-07-14T06:29:01.436Z,53.80
2018-07-14T06:29:33.158Z,53.80
2018-07-14T06:30:04.885Z,53.80
2018-07-14T06:30:36.634Z,53.80
2018-07-14T06:31:08.362Z,53.90
2018-07-14T06:31:40.169Z,53.90
2018-07-14T06:32:11.904Z,54.00
2018-07-14T06:32:43.648Z,54.00
2018-07-14T06:33:15.375Z,54.00
2018-07-14T06:33:47.128Z,54.60
2018-07-14T06:34:18.835Z,54.10
2018-07-14T06:34:50.613Z,54.10
2018-07-14T06:35:22.334Z,54.10
2018-07-14T06:35:54.067Z,54.40
2018-07-14T06:36:25.795Z,54.10
2018-07-14T06:36:57.515Z,54.10
2018-07-14T06:37:29.246Z,54.10
2018-07-14T06:38:00.991Z,54.10
2018-07-14T06:38:32.749Z,54.20
2018-07-14T06:39:04.630Z,54.10
2018-07-14T06:39:36.366Z,54.10
2018-07-14T06:40:08.097Z,54.10
2018-07-14T06:40:39.819Z,54.10
2018-07-14T06:41:11.578Z,54.10
2018-07-14T06:41:43.291Z,54.10
2018-07-14T06:42:15.011Z,54.20
2018-07-14T06:42:46.753Z,54.20
2018-07-14T06:43:18.477Z,54.20
2018-07-14T06:43:50.217Z,54.20
2018-07-14T06:44:21.939Z,54.20
2018-07-14T06:44:53.735Z,54.20
2018-07-14T06:45:25.591Z,54.30
2018-07-14T06:45:57.340Z,54.30
2018-07-14T06:46:29.072Z,54.40
2018-07-14T06:47:00.808Z,54.30
2018-07-14T06:47:32.528Z,54.50
2018-07-14T06:48:04.186Z,54.40
2018-07-14T06:49:18.989Z,54.40
2018-07-14T06:49:56.385Z,54.40
2018-07-14T06:50:33.822Z,54.50
2018-07-14T06:51:05.566Z,54.40
2018-07-14T06:51:37.370Z,54.30
2018-07-14T06:52:09.097Z,54.30
2018-07-14T06:52:40.822Z,54.30
2018-07-14T06:53:12.614Z,54.30
2018-07-14T06:53:44.325Z,54.30
2018-07-14T06:54:16.118Z,54.30
2018-07-14T06:54:48.099Z,54.30
2018-07-14T06:55:19.921Z,54.30
2018-07-14T06:55:54.609Z,54.30
2018-07-14T06:56:26.329Z,54.30
2018-07-14T06:56:58.054Z,54.30
2018-07-14T06:57:29.774Z,54.30
2018-07-14T06:58:01.522Z,54.30
2018-07-14T06:58:33.304Z,54.30